Terminal Aerodrome Forecast
Issued by NWS Lake Charles, LA

Home | Current Version | Previous Version | Text Only | Print | Product List | Glossary On
Versions: 1 2 3 4 5 6 7 8 9 10 11 12
000
FTUS44 KLCH 202300
TAFAEX
TAF
KAEX 202320Z 2100/2124 15006KT P6SM FEW050 SCT100
     FM211200 14006KT P6SM SCT050 BKN100
     FM211900 13008KT P6SM BKN050=

USA.gov is the U.S. government's official web portal to all federal, state and local government web resources and services.